Time;durP1;ratioP1;P1;durP2;ratioP2;P2;SDS_P1;SDS_P2;PMS_P1;PMS_P2;Temp;Humidity;BMP_temperature;BMP_pressure;BME280_temperature;BME280_humidity;BME280_pressure;Samples;Min_cycle;Max_cycle;Signal;HPM_P1;HPM_P2
2022/11/05 00:09:37;;;;;;;1.90;0.90;;;;;;;19.46;65.82;100103.88;5069107;28;20415;-71
2022/11/05 00:17:33;;;;;;;1.73;0.80;;;;;;;19.47;65.45;100116.19;5068771;28;20397;-72
2022/11/05 00:19:59;;;;;;;1.53;0.77;;;;;;;19.50;65.32;100121.94;5064464;28;20466;-72
2022/11/05 00:25:18;;;;;;;1.50;0.80;;;;;;;19.52;65.34;100113.75;5048842;28;20163;-72
2022/11/05 00:27:48;;;;;;;2.00;0.80;;;;;;;19.53;65.36;100106.00;5050248;28;20482;-72
2022/11/05 00:30:17;;;;;;;1.60;0.90;;;;;;;19.51;65.14;100111.31;5048547;28;20449;-71
2022/11/05 00:32:43;;;;;;;1.53;0.70;;;;;;;19.47;65.40;100122.72;5048995;28;20442;-71
2022/11/05 00:35:09;;;;;;;1.87;0.97;;;;;;;19.47;65.41;100122.72;5047634;28;20418;-72
2022/11/05 00:37:34;;;;;;;1.90;1.10;;;;;;;19.52;65.25;100115.81;5048691;28;20442;-71
2022/11/05 00:40:00;;;;;;;1.80;0.80;;;;;;;19.45;65.69;100115.72;5031823;28;20196;-72
2022/11/05 00:45:10;;;;;;;2.03;0.90;;;;;;;19.52;65.34;100119.50;5062263;28;20171;-71
2022/11/05 00:50:39;;;;;;;1.70;0.93;;;;;;;19.45;65.56;100130.03;5016199;28;20184;-71
2022/11/05 00:53:05;;;;;;;1.50;0.80;;;;;;;19.45;65.62;100133.75;5010779;28;20743;-71
2022/11/05 00:55:36;;;;;;;1.80;0.87;;;;;;;19.48;65.70;100124.38;5018212;28;20192;-71
2022/11/05 00:58:04;;;;;;;1.90;0.90;;;;;;;19.45;65.45;100130.88;5046156;28;20340;-71
2022/11/05 01:00:30;;;;;;;1.43;0.70;;;;;;;19.49;65.33;100126.03;5046259;28;20457;-71
2022/11/05 01:03:03;;;;;;;2.40;1.30;;;;;;;19.49;65.14;100130.91;5047937;28;20474;-71
2022/11/05 01:05:28;;;;;;;1.57;0.70;;;;;;;19.49;65.13;100139.50;5047827;28;20426;-71
2022/11/05 01:07:54;;;;;;;1.90;1.00;;;;;;;19.46;65.38;100138.25;5048120;28;21006;-71
2022/11/05 01:10:20;;;;;;;1.70;0.90;;;;;;;19.46;65.50;100143.97;5031548;28;20166;-71
2022/11/05 01:12:46;;;;;;;2.27;0.97;;;;;;;19.46;65.38;100152.56;5048361;28;20194;-71
2022/11/05 01:15:11;;;;;;;1.80;0.83;;;;;;;19.49;65.39;100146.06;5047828;28;20410;-71
2022/11/05 01:17:36;;;;;;;2.67;1.30;;;;;;;19.50;65.31;100150.56;5048212;28;20175;-71
2022/11/05 01:20:02;;;;;;;1.60;0.80;;;;;;;19.46;65.44;100155.41;5064810;28;20210;-71
2022/11/05 01:22:28;;;;;;;1.70;1.00;;;;;;;19.46;65.44;100146.84;5048079;28;20206;-71
2022/11/05 01:24:53;;;;;;;2.17;1.13;;;;;;;19.45;65.45;100148.06;5031111;28;20410;-71
2022/11/05 01:27:19;;;;;;;1.60;0.80;;;;;;;19.44;65.57;100157.88;5031455;28;20176;-71
2022/11/05 01:29:44;;;;;;;2.10;1.03;;;;;;;19.46;65.45;100164.00;5048139;28;20629;-71
2022/11/05 01:32:10;;;;;;;1.43;0.63;;;;;;;19.41;65.57;100164.34;5050328;28;20600;-71
2022/11/05 01:34:35;;;;;;;2.00;1.07;;;;;;;19.44;65.51;100162.75;5047824;28;20176;-71
2022/11/05 01:37:01;;;;;;;1.50;0.80;;;;;;;19.42;65.49;100166.00;5048932;28;20165;-71
2022/11/05 01:39:26;;;;;;;2.80;0.90;;;;;;;19.43;65.46;100164.81;5048083;28;20226;-71
2022/11/05 01:41:51;;;;;;;1.43;0.90;;;;;;;19.47;65.34;100168.53;5049347;28;20200;-71
2022/11/05 01:44:51;;;;;;;2.40;1.20;;;;;;;19.45;65.36;100170.97;5064346;28;20164;-71
2022/11/05 01:47:47;;;;;;;1.50;0.80;;;;;;;19.47;65.70;100168.53;5064990;28;20210;-71
2022/11/05 01:50:35;;;;;;;1.80;0.90;;;;;;;19.45;65.39;100170.97;5051702;28;20423;-71
2022/11/05 01:53:12;;;;;;;1.60;0.87;;;;;;;19.48;65.31;100173.06;5051747;28;20497;-71
2022/11/05 01:55:47;;;;;;;1.80;0.93;;;;;;;19.49;65.29;100173.84;5051230;28;20456;-71
2022/11/05 01:58:15;;;;;;;1.90;1.00;;;;;;;19.46;65.10;100178.31;5051716;28;20952;-71
2022/11/05 02:00:41;;;;;;;1.70;0.90;;;;;;;19.46;65.31;100172.59;5051551;28;20454;-71
2022/11/05 02:03:06;;;;;;;1.90;0.90;;;;;;;19.48;65.35;100175.09;5050720;28;20477;-71
2022/11/05 02:05:32;;;;;;;2.10;0.90;;;;;;;19.47;65.37;100179.97;5071045;28;20175;-71
2022/11/05 02:07:57;;;;;;;2.00;0.80;;;;;;;19.46;65.35;100174.66;5071304;28;20255;-71
2022/11/05 02:10:23;;;;;;;1.67;0.97;;;;;;;19.43;65.33;100179.13;5057691;28;20180;-72
2022/11/05 02:12:48;;;;;;;2.07;0.90;;;;;;;19.46;65.35;100184.06;5048077;28;20164;-72
2022/11/05 02:15:29;;;;;;;1.50;0.67;;;;;;;19.44;65.47;100191.38;5047683;28;20711;-72
2022/11/05 02:18:12;;;;;;;2.40;0.80;;;;;;;19.41;65.55;100181.53;5045948;28;20215;-72
2022/11/05 02:21:02;;;;;;;1.50;1.00;;;;;;;19.41;65.39;100195.03;5050798;28;20473;-72
2022/11/05 02:24:06;;;;;;;1.70;1.00;;;;;;;19.46;65.22;100188.97;5050990;28;20441;-72
2022/11/05 02:26:50;;;;;;;2.00;0.90;;;;;;;19.43;65.38;100184.84;4990466;28;20548;-71
2022/11/05 02:29:29;;;;;;;1.83;0.70;;;;;;;19.43;65.45;100190.56;4990215;28;20512;-72
2022/11/05 02:32:25;;;;;;;1.63;0.87;;;;;;;19.40;65.32;100199.94;5041017;28;20438;-72
2022/11/05 02:35:06;;;;;;;1.63;0.90;;;;;;;19.45;65.27;100193.88;5065608;28;20427;-71
2022/11/05 02:37:50;;;;;;;1.63;0.87;;;;;;;19.46;65.34;100201.22;5050861;28;20457;-72
2022/11/05 02:40:28;;;;;;;2.10;1.00;;;;;;;19.44;65.31;100197.94;5018115;28;20456;-72
2022/11/05 02:43:15;;;;;;;1.70;0.90;;;;;;;19.45;65.12;100202.47;5034116;28;20464;-71
2022/11/05 02:46:12;;;;;;;1.80;0.90;;;;;;;19.43;65.31;100201.19;5052866;28;20410;-71
2022/11/05 02:49:13;;;;;;;1.63;0.90;;;;;;;19.44;65.22;100199.97;5051613;28;20406;-71
2022/11/05 02:51:46;;;;;;;2.37;0.93;;;;;;;19.45;64.88;100201.63;5038201;28;20426;-71
2022/11/05 02:54:17;;;;;;;1.87;0.90;;;;;;;19.44;65.42;100202.84;5049868;28;20427;-72
2022/11/05 02:56:45;;;;;;;1.80;1.00;;;;;;;19.44;65.34;100203.66;5066360;28;20414;-71
2022/11/05 02:59:10;;;;;;;1.90;0.80;;;;;;;19.42;65.34;100211.81;5049517;28;20418;-71
2022/11/05 03:01:36;;;;;;;1.50;0.70;;;;;;;19.43;65.38;100218.38;5066214;28;20533;-72
2022/11/05 03:04:03;;;;;;;1.60;0.80;;;;;;;19.40;65.31;100219.97;5040826;28;20230;-71
2022/11/05 03:06:50;;;;;;;1.40;0.70;;;;;;;19.43;65.17;100219.22;5016767;28;20195;-71
2022/11/05 03:09:21;;;;;;;2.20;1.03;;;;;;;19.42;65.18;100222.47;5051140;28;20476;-71
2022/11/05 03:12:01;;;;;;;1.80;1.00;;;;;;;19.40;65.29;100228.56;5051129;28;20411;-72
2022/11/05 03:14:52;;;;;;;1.60;0.80;;;;;;;19.41;65.44;100232.25;5032744;28;20428;-71
2022/11/05 03:17:24;;;;;;;1.67;0.70;;;;;;;19.40;65.40;100228.56;5021499;28;20495;-72
2022/11/05 03:20:11;;;;;;;1.50;0.70;;;;;;;19.41;65.15;100229.41;5049591;28;20988;-72
2022/11/05 03:23:13;;;;;;;1.60;0.77;;;;;;;19.40;65.34;100227.72;5049941;28;20410;-71
2022/11/05 03:25:46;;;;;;;1.50;0.70;;;;;;;19.39;65.24;100229.78;5041363;28;20436;-72
2022/11/05 03:28:12;;;;;;;1.60;0.70;;;;;;;19.40;65.36;100240.00;5034040;28;20894;-72
2022/11/05 03:30:37;;;;;;;1.60;0.80;;;;;;;19.42;65.71;100240.44;5032720;28;20425;-71
2022/11/05 03:33:07;;;;;;;2.20;1.10;;;;;;;19.41;65.40;100249.44;5016554;28;20179;-71
2022/11/05 03:35:37;;;;;;;1.60;0.80;;;;;;;19.41;65.14;100246.59;5032997;28;20266;-71
2022/11/05 03:38:06;;;;;;;1.80;0.90;;;;;;;19.39;65.27;100258.41;5033030;28;20869;-71
2022/11/05 03:40:32;;;;;;;2.83;0.90;;;;;;;19.39;65.22;100252.69;5035141;28;20563;-72
2022/11/05 03:42:58;;;;;;;1.80;1.03;;;;;;;19.39;65.35;100264.13;5049473;28;20504;-72
2022/11/05 03:45:26;;;;;;;1.47;0.80;;;;;;;19.40;65.24;100256.34;5048816;28;20896;-72
2022/11/05 03:47:53;;;;;;;1.60;0.80;;;;;;;19.41;65.41;100263.75;5065511;28;20491;-72
2022/11/05 03:50:36;;;;;;;3.83;1.10;;;;;;;19.40;65.21;100264.94;5049290;28;20434;-72
2022/11/05 03:53:16;;;;;;;2.00;0.90;;;;;;;19.37;65.16;100272.28;5029478;28;20815;-72
2022/11/05 03:55:48;;;;;;;1.50;0.80;;;;;;;19.38;65.32;100284.56;5013219;28;20844;-71
2022/11/05 03:58:14;;;;;;;1.80;0.80;;;;;;;19.40;65.23;100280.09;5029333;28;20911;-71
2022/11/05 04:00:39;;;;;;;1.50;0.70;;;;;;;19.37;65.46;100282.91;5012677;28;20501;-71
2022/11/05 04:03:05;;;;;;;1.67;0.80;;;;;;;19.39;65.14;100281.31;5015729;28;20220;-71
2022/11/05 04:05:30;;;;;;;1.97;0.93;;;;;;;19.36;65.44;100293.53;5032960;28;20171;-71
2022/11/05 04:13:23;;;;;;;2.17;0.90;;;;;;;19.38;65.29;100299.72;5083420;28;20475;-72
2022/11/05 04:18:35;;;;;;;1.80;1.00;;;;;;;19.36;65.31;100290.66;5069010;28;20194;-72
2022/11/05 04:26:29;;;;;;;2.43;0.90;;;;;;;19.34;65.50;100298.00;5048509;28;20851;-72
2022/11/05 04:31:38;;;;;;;2.47;0.90;;;;;;;19.36;65.25;100299.25;5048901;28;20191;-71
2022/11/05 04:34:04;;;;;;;1.70;0.93;;;;;;;19.38;65.17;100302.56;5048759;28;20457;-72
2022/11/05 04:36:29;;;;;;;1.90;0.77;;;;;;;19.38;65.29;100305.44;5031375;28;20218;-72
2022/11/05 04:38:55;;;;;;;1.70;0.70;;;;;;;19.34;65.34;100306.56;5048505;28;20180;-72
2022/11/05 04:41:20;;;;;;;1.40;0.70;;;;;;;19.36;65.30;100319.28;5031716;28;20273;-72
2022/11/05 04:43:46;;;;;;;1.50;0.80;;;;;;;19.36;65.43;100315.63;5050878;28;20196;-72
2022/11/05 04:46:11;;;;;;;1.60;0.80;;;;;;;19.35;65.22;100323.38;5031741;28;20160;-72
2022/11/05 04:48:37;;;;;;;1.80;0.80;;;;;;;19.36;65.32;100321.34;5050680;28;20183;-72
2022/11/05 04:51:03;;;;;;;1.60;0.77;;;;;;;19.38;65.22;100331.19;5048270;28;20241;-72
2022/11/05 04:53:29;;;;;;;1.90;0.93;;;;;;;19.37;65.27;100329.53;5048538;28;20646;-71
2022/11/05 04:56:08;;;;;;;2.07;0.77;;;;;;;19.35;65.21;100337.69;5047930;28;20407;-71
2022/11/05 04:58:37;;;;;;;1.60;0.70;;;;;;;19.36;65.45;100339.34;5048042;28;20426;-72
2022/11/05 05:01:02;;;;;;;1.30;0.60;;;;;;;19.37;65.17;100343.84;5048044;28;20917;-72
2022/11/05 05:03:28;;;;;;;2.40;0.87;;;;;;;19.34;65.22;100341.78;5063953;28;20462;-71
2022/11/05 05:05:53;;;;;;;1.80;0.90;;;;;;;19.34;65.60;100352.38;5047506;28;20187;-71
2022/11/05 05:08:19;;;;;;;1.77;0.80;;;;;;;19.34;65.34;100346.66;5047684;28;20203;-72
2022/11/05 05:10:44;;;;;;;1.40;0.80;;;;;;;19.32;65.13;100349.91;5049596;28;20178;-71
2022/11/05 05:13:10;;;;;;;1.43;0.70;;;;;;;19.36;65.17;100353.66;5064559;28;20179;-72
2022/11/05 05:15:36;;;;;;;2.30;1.10;;;;;;;19.36;65.06;100358.56;5046777;28;20237;-71
2022/11/05 05:18:01;;;;;;;1.60;0.70;;;;;;;19.36;65.12;100367.16;5064027;28;20179;-71
2022/11/05 05:23:11;;;;;;;1.40;0.70;;;;;;;19.34;65.32;100366.69;5050945;28;20194;-71
2022/11/05 05:25:36;;;;;;;1.77;1.00;;;;;;;19.34;65.43;100369.56;5050186;28;20870;-71
2022/11/05 05:28:02;;;;;;;2.40;0.80;;;;;;;19.35;65.34;100380.63;5050670;28;20182;-71
2022/11/05 05:30:27;;;;;;;1.60;0.80;;;;;;;19.35;65.25;100374.91;5053601;28;20164;-71
2022/11/05 05:32:53;;;;;;;1.67;1.03;;;;;;;19.36;65.16;100373.69;5051309;28;20179;-71
2022/11/05 05:35:18;;;;;;;1.90;0.90;;;;;;;19.39;65.12;100384.38;5067586;28;20182;-72
2022/11/05 05:37:44;;;;;;;3.43;1.10;;;;;;;19.36;65.29;100387.19;5052914;28;20183;-71
2022/11/05 05:40:10;;;;;;;1.70;1.00;;;;;;;19.33;65.26;100391.66;5068183;28;20203;-71
2022/11/05 05:42:35;;;;;;;1.50;0.70;;;;;;;19.36;65.47;100405.19;5051868;28;20180;-71
2022/11/05 05:45:01;;;;;;;1.63;0.90;;;;;;;19.34;65.38;100399.03;5068101;28;20425;-71
2022/11/05 05:47:26;;;;;;;1.90;0.83;;;;;;;19.35;65.17;100400.66;5051268;28;20160;-71
2022/11/05 05:49:52;;;;;;;1.63;0.80;;;;;;;19.37;65.16;100398.22;5068231;28;20191;-71
2022/11/05 05:52:17;;;;;;;1.90;0.83;;;;;;;19.37;65.27;100403.16;5034749;28;20645;-71
2022/11/05 05:54:43;;;;;;;1.80;0.70;;;;;;;19.34;65.20;100404.75;5048163;28;20253;-71
2022/11/05 05:57:08;;;;;;;1.87;0.87;;;;;;;19.35;65.20;100406.41;5032443;28;20173;-71
2022/11/05 05:59:34;;;;;;;1.47;0.70;;;;;;;19.35;65.10;100402.69;5031497;28;20739;-71
2022/11/05 06:01:59;;;;;;;1.60;0.80;;;;;;;19.34;65.23;100413.34;5015070;28;20192;-71
2022/11/05 06:04:25;;;;;;;3.43;1.10;;;;;;;19.37;65.06;100421.13;5053249;28;20223;-71
2022/11/05 06:06:50;;;;;;;1.63;0.90;;;;;;;19.36;65.08;100421.56;5050972;28;20261;-71
2022/11/05 06:09:16;;;;;;;1.53;0.70;;;;;;;19.34;65.41;100419.06;5053421;28;20491;-71
2022/11/05 06:11:41;;;;;;;1.60;0.80;;;;;;;19.34;65.44;100424.78;5052608;28;20203;-71
2022/11/05 06:14:12;;;;;;;1.60;0.87;;;;;;;19.35;65.13;100423.56;5068195;28;20520;-71
2022/11/05 06:16:38;;;;;;;1.50;0.90;;;;;;;19.37;65.02;100428.91;5051314;28;20210;-71
2022/11/05 06:19:05;;;;;;;1.70;0.90;;;;;;;19.34;65.25;100438.25;5069974;28;20418;-71
2022/11/05 06:21:30;;;;;;;1.60;0.80;;;;;;;19.35;65.13;100435.03;5068303;28;20203;-71
2022/11/05 06:23:56;;;;;;;1.73;0.90;;;;;;;19.33;65.10;100439.47;5034599;28;20437;-71
2022/11/05 06:26:21;;;;;;;1.70;0.80;;;;;;;19.32;65.36;100452.97;5052726;28;20164;-71
2022/11/05 06:28:47;;;;;;;1.73;1.10;;;;;;;19.34;65.28;100452.56;5035035;28;20761;-71
2022/11/05 06:31:12;;;;;;;1.37;0.70;;;;;;;19.35;65.23;100457.09;5034564;28;20190;-71
2022/11/05 06:33:38;;;;;;;2.40;1.07;;;;;;;19.37;64.96;100461.22;5050447;28;20265;-71
2022/11/05 06:36:04;;;;;;;1.50;0.60;;;;;;;19.34;64.98;100467.72;5050854;28;20164;-71
2022/11/05 06:38:34;;;;;;;1.60;0.90;;;;;;;19.39;65.17;100469.44;5052524;28;20176;-71
2022/11/05 06:40:59;;;;;;;1.40;0.70;;;;;;;19.36;65.03;100476.75;5048747;28;20480;-71
2022/11/05 06:43:25;;;;;;;1.87;1.00;;;;;;;19.37;64.95;100484.13;5045843;28;21046;-71
2022/11/05 06:45:51;;;;;;;1.70;0.73;;;;;;;19.36;65.06;100488.19;5066525;28;20182;-71
2022/11/05 06:48:16;;;;;;;1.70;0.77;;;;;;;19.37;64.93;100477.59;5048782;28;20434;-71
2022/11/05 06:50:45;;;;;;;1.47;0.70;;;;;;;19.40;64.90;100494.81;5048299;28;20245;-71
2022/11/05 06:53:10;;;;;;;1.53;0.80;;;;;;;19.38;65.07;100497.25;5049036;28;20751;-71
2022/11/05 06:55:36;;;;;;;1.57;0.80;;;;;;;19.38;65.03;100490.69;5049174;28;20437;-71
2022/11/05 06:58:01;;;;;;;1.50;0.83;;;;;;;19.35;65.06;100503.72;5051144;28;20259;-71
2022/11/05 07:00:27;;;;;;;1.63;0.90;;;;;;;19.35;65.13;100509.47;5049758;28;20204;-71
2022/11/05 07:02:54;;;;;;;1.67;0.70;;;;;;;19.37;65.04;100514.81;5065848;28;20223;-71
2022/11/05 07:05:20;;;;;;;1.70;0.90;;;;;;;19.33;65.14;100511.88;5049920;28;20241;-71
2022/11/05 07:07:45;;;;;;;1.30;0.60;;;;;;;19.37;64.99;100518.47;5013772;28;20442;-71
2022/11/05 07:10:13;;;;;;;1.30;0.60;;;;;;;19.38;64.94;100520.16;5065669;28;20170;-71
2022/11/05 07:12:38;;;;;;;2.07;0.93;;;;;;;19.36;65.06;100522.56;5047583;28;20510;-71
2022/11/05 07:15:04;;;;;;;1.57;0.83;;;;;;;19.37;64.94;100523.41;5047800;28;20430;-71
2022/11/05 07:17:30;;;;;;;1.60;0.80;;;;;;;19.36;64.99;100528.28;5046151;28;20188;-71
2022/11/05 07:19:55;;;;;;;2.10;1.10;;;;;;;19.35;65.12;100529.50;5033385;28;20448;-71
2022/11/05 07:22:21;;;;;;;2.63;1.00;;;;;;;19.36;65.04;100539.75;5049654;28;20630;-71
2022/11/05 07:24:48;;;;;;;2.00;1.00;;;;;;;19.37;64.89;100541.38;5033450;28;20647;-71
2022/11/05 07:27:13;;;;;;;1.50;0.63;;;;;;;19.39;64.93;100536.13;5045996;28;20668;-71
2022/11/05 07:29:39;;;;;;;1.60;0.90;;;;;;;19.39;64.99;100543.88;5049547;28;20430;-71
2022/11/05 07:32:04;;;;;;;1.57;0.80;;;;;;;19.36;65.05;100548.31;5049792;28;20241;-71
2022/11/05 07:34:30;;;;;;;2.80;0.70;;;;;;;19.39;65.03;100543.88;5066220;28;20184;-71
2022/11/05 07:36:55;;;;;;;1.63;0.80;;;;;;;19.38;65.07;100548.78;5044402;28;20250;-71
2022/11/05 07:39:21;;;;;;;1.70;0.80;;;;;;;19.39;65.00;100553.31;5065525;28;20547;-71
2022/11/05 07:41:46;;;;;;;1.57;0.70;;;;;;;19.36;65.01;100558.97;5048816;28;20238;-71
2022/11/05 07:44:13;;;;;;;1.53;0.80;;;;;;;19.37;65.03;100561.44;5031624;28;20206;-71
2022/11/05 07:46:40;;;;;;;1.53;0.80;;;;;;;19.38;65.07;100565.13;5047809;28;20187;-71
2022/11/05 07:49:05;;;;;;;1.67;0.93;;;;;;;19.39;65.15;100566.78;5047788;28;20421;-71
2022/11/05 07:51:31;;;;;;;1.50;0.80;;;;;;;19.37;65.08;100569.22;5048401;28;20434;-71
2022/11/05 07:53:56;;;;;;;1.53;0.77;;;;;;;19.37;65.04;100570.00;5048407;28;20195;-71
2022/11/05 07:56:22;;;;;;;1.40;0.70;;;;;;;19.40;65.03;100585.59;5027197;28;21040;-71
2022/11/05 07:58:47;;;;;;;2.20;1.00;;;;;;;19.40;64.93;100586.44;5031864;28;20179;-71
2022/11/05 08:01:13;;;;;;;1.40;0.80;;;;;;;19.37;65.02;100592.91;5049292;28;20212;-71
2022/11/05 08:03:38;;;;;;;1.60;0.77;;;;;;;19.36;65.00;100590.47;5032301;28;20234;-71
2022/11/05 08:06:04;;;;;;;1.87;1.00;;;;;;;19.39;64.76;100599.13;5029761;28;20978;-71
2022/11/05 08:08:29;;;;;;;1.83;1.13;;;;;;;19.38;64.99;100605.22;5028392;28;20203;-71
2022/11/05 08:11:02;;;;;;;1.97;1.10;;;;;;;19.39;64.99;100601.97;5050240;28;20222;-71
2022/11/05 08:13:27;;;;;;;2.33;0.90;;;;;;;19.42;64.89;100606.94;5013520;28;20184;-71
2022/11/05 08:15:54;;;;;;;1.80;0.70;;;;;;;19.38;65.06;100608.91;5047601;28;20508;-71
2022/11/05 08:18:20;;;;;;;2.10;1.10;;;;;;;19.39;64.95;100613.44;5028897;28;20249;-71
2022/11/05 08:20:45;;;;;;;1.40;0.60;;;;;;;19.38;64.87;100611.78;5061503;28;20462;-71
2022/11/05 08:23:11;;;;;;;1.60;0.93;;;;;;;19.40;65.00;100614.25;5029775;28;20183;-71
2022/11/05 08:25:36;;;;;;;2.00;1.00;;;;;;;19.38;64.93;100623.22;5047316;28;20195;-71
2022/11/05 08:28:10;;;;;;;1.50;0.70;;;;;;;19.40;64.92;100619.97;5012139;28;20183;-71
2022/11/05 08:30:36;;;;;;;2.40;0.93;;;;;;;19.43;64.91;100622.09;5042062;28;20207;-71
2022/11/05 08:33:03;;;;;;;1.47;0.90;;;;;;;19.41;64.92;100624.50;5028980;28;20454;-71
2022/11/05 08:35:29;;;;;;;1.40;0.70;;;;;;;19.38;65.02;100620.38;5028313;28;20198;-71
2022/11/05 08:37:59;;;;;;;1.60;0.90;;;;;;;19.41;64.97;100624.50;5042368;28;20473;-71
2022/11/05 08:40:25;;;;;;;1.60;0.80;;;;;;;19.40;64.98;100623.66;5042794;28;20211;-72
2022/11/05 08:43:13;;;;;;;1.60;0.77;;;;;;;19.41;64.84;100628.19;5048652;28;20442;-72
2022/11/05 08:45:39;;;;;;;1.70;0.90;;;;;;;19.40;64.92;100623.66;5011732;28;20200;-72
2022/11/05 08:48:05;;;;;;;1.80;0.90;;;;;;;19.42;64.83;100629.03;5043376;28;20441;-72
2022/11/05 08:50:31;;;;;;;1.80;0.80;;;;;;;19.41;64.90;100638.81;5062608;28;20538;-72
2022/11/05 08:52:57;;;;;;;1.40;0.70;;;;;;;19.41;64.84;100638.81;5048921;28;20425;-72
2022/11/05 08:55:22;;;;;;;1.67;1.03;;;;;;;19.42;64.90;100643.34;5046592;28;20188;-71
2022/11/05 08:57:50;;;;;;;1.70;0.87;;;;;;;19.43;64.82;100637.25;5029853;28;20181;-72
2022/11/05 09:00:16;;;;;;;1.40;0.70;;;;;;;19.44;64.84;100644.63;5010592;28;20361;-72
2022/11/05 09:02:41;;;;;;;1.70;0.80;;;;;;;19.43;64.76;100640.09;5044466;28;21028;-72
2022/11/05 09:05:07;;;;;;;1.80;1.00;;;;;;;19.40;65.07;100648.59;5061818;28;20196;-72
2022/11/05 09:07:33;;;;;;;1.77;0.77;;;;;;;19.43;64.71;100647.84;5047335;28;20691;-72
2022/11/05 09:09:58;;;;;;;1.70;0.93;;;;;;;19.43;64.87;100648.69;5043966;28;20237;-72
2022/11/05 09:12:24;;;;;;;1.40;0.80;;;;;;;19.44;64.67;100646.63;5043022;28;20183;-72
2022/11/05 09:14:49;;;;;;;2.30;1.10;;;;;;;19.42;64.83;100661.31;5024922;28;20189;-71
2022/11/05 09:17:19;;;;;;;1.87;0.70;;;;;;;19.43;64.69;100648.69;5021857;28;20290;-72
2022/11/05 09:19:44;;;;;;;1.90;0.90;;;;;;;19.39;65.13;100646.94;5042334;28;20180;-72
2022/11/05 09:22:11;;;;;;;1.50;0.80;;;;;;;19.40;64.92;100654.31;5029187;28;20807;-72
2022/11/05 09:24:38;;;;;;;1.87;1.07;;;;;;;19.40;64.88;100655.16;5029068;28;20188;-72
2022/11/05 09:27:04;;;;;;;1.60;0.70;;;;;;;19.42;64.98;100658.47;5026476;28;20757;-72
2022/11/05 09:29:29;;;;;;;1.43;0.83;;;;;;;19.41;64.90;100659.69;5041995;28;20441;-71
2022/11/05 09:31:55;;;;;;;2.20;1.47;;;;;;;19.41;64.95;100661.72;5044342;28;20184;-72
2022/11/05 09:34:20;;;;;;;1.60;0.77;;;;;;;19.42;64.88;100669.91;5045522;28;20187;-72
2022/11/05 09:36:46;;;;;;;2.30;1.13;;;;;;;19.42;64.93;100674.84;5044158;28;20667;-72
2022/11/05 09:39:11;;;;;;;1.60;0.83;;;;;;;19.39;64.99;100673.56;5046491;28;20199;-72
2022/11/05 09:41:38;;;;;;;1.77;1.03;;;;;;;19.41;64.93;100676.84;5010648;28;20234;-72
2022/11/05 09:44:11;;;;;;;1.80;0.93;;;;;;;19.43;64.88;100676.50;5046305;28;20194;-71
2022/11/05 09:46:49;;;;;;;1.80;1.20;;;;;;;19.41;64.88;100684.63;5032568;28;20430;-72
2022/11/05 09:49:38;;;;;;;1.77;0.90;;;;;;;19.40;64.78;100678.06;5041410;28;20433;-71
2022/11/05 09:52:04;;;;;;;1.53;0.80;;;;;;;19.43;64.86;100679.34;5025491;28;20451;-71
2022/11/05 09:54:30;;;;;;;1.70;0.93;;;;;;;19.43;64.82;100682.22;5015984;28;20436;-71
2022/11/05 09:56:56;;;;;;;1.50;0.60;;;;;;;19.45;64.76;100677.75;5026257;28;20191;-71
2022/11/05 09:59:27;;;;;;;1.50;0.83;;;;;;;19.42;65.03;100681.38;5044369;28;20425;-71
2022/11/05 10:02:10;;;;;;;1.97;1.20;;;;;;;19.40;65.02;100686.66;5025922;28;20211;-70
2022/11/05 10:04:35;;;;;;;1.97;0.90;;;;;;;19.40;64.99;100682.94;5029778;28;20434;-70
2022/11/05 10:07:02;;;;;;;2.20;1.00;;;;;;;19.43;64.86;100685.91;5029817;28;20528;-71
2022/11/05 10:09:31;;;;;;;1.70;0.90;;;;;;;19.41;64.87;100687.50;5045467;28;20207;-71
2022/11/05 10:12:45;;;;;;;1.77;0.90;;;;;;;19.42;64.86;100689.16;5048581;28;21202;-71
2022/11/05 10:15:26;;;;;;;1.73;0.87;;;;;;;19.38;65.09;100688.25;5019003;28;20433;-73
2022/11/05 10:18:23;;;;;;;1.83;0.87;;;;;;;19.43;64.90;100700.22;5032071;28;20818;-72
2022/11/05 10:20:48;;;;;;;1.90;0.80;;;;;;;19.41;64.97;100707.53;5045909;28;20466;-73
2022/11/05 10:23:16;;;;;;;1.97;1.10;;;;;;;19.43;65.04;100697.38;5061461;28;20523;-73
2022/11/05 10:25:45;;;;;;;1.70;1.00;;;;;;;19.39;64.97;100704.22;5027954;28;20197;-73
2022/11/05 10:28:15;;;;;;;1.60;0.87;;;;;;;19.44;64.84;100699.03;5049644;28;20901;-73
2022/11/05 10:30:42;;;;;;;1.50;0.70;;;;;;;19.43;64.71;100703.09;5033382;28;20893;-73
2022/11/05 10:33:09;;;;;;;1.83;1.00;;;;;;;19.46;64.79;100710.91;5032307;28;20437;-73
2022/11/05 10:35:45;;;;;;;1.70;0.93;;;;;;;19.39;64.87;100718.53;5045436;28;20430;-73
2022/11/05 10:38:12;;;;;;;2.07;1.10;;;;;;;19.38;65.21;100726.31;5031848;28;20437;-73
2022/11/05 10:40:46;;;;;;;1.40;0.73;;;;;;;19.43;64.91;100720.28;5044838;28;21042;-73
2022/11/05 10:43:18;;;;;;;1.50;0.80;;;;;;;19.38;65.12;100716.88;5068666;28;20431;-73
2022/11/05 10:46:22;;;;;;;2.60;0.83;;;;;;;19.42;64.81;100715.72;5022744;28;20441;-73
2022/11/05 10:48:58;;;;;;;1.57;0.90;;;;;;;19.43;64.81;100714.56;5009686;28;20784;-73
2022/11/05 10:51:23;;;;;;;2.17;1.00;;;;;;;19.46;64.79;100724.41;5059218;28;20422;-72
2022/11/05 10:53:52;;;;;;;1.53;0.80;;;;;;;19.44;64.71;100713.34;5025587;28;20499;-72
2022/11/05 10:56:32;;;;;;;1.90;1.03;;;;;;;19.44;64.67;100709.63;5043992;28;20184;-73
2022/11/05 10:58:58;;;;;;;1.70;0.90;;;;;;;19.50;64.60;100713.84;5026600;28;20497;-73
2022/11/05 11:01:24;;;;;;;2.37;1.03;;;;;;;19.48;64.73;100713.41;5043350;28;20460;-73
2022/11/05 11:03:51;;;;;;;1.53;0.83;;;;;;;19.46;64.88;100708.06;5060827;28;20470;-72
2022/11/05 11:06:28;;;;;;;1.70;0.90;;;;;;;19.47;64.70;100708.91;5060405;28;20433;-73
2022/11/05 11:08:55;;;;;;;2.13;0.70;;;;;;;19.48;64.81;100708.53;5027422;28;20421;-73
2022/11/05 11:11:30;;;;;;;1.83;1.03;;;;;;;19.49;64.64;100698.72;5017993;28;20434;-73
2022/11/05 11:13:56;;;;;;;1.60;0.90;;;;;;;19.51;64.37;100706.94;5043244;28;20418;-73
2022/11/05 11:16:23;;;;;;;2.30;1.10;;;;;;;19.48;64.62;100707.69;5043691;28;20759;-73
2022/11/05 11:19:02;;;;;;;1.70;0.77;;;;;;;19.46;64.79;100710.91;5042262;28;20195;-74
2022/11/05 11:21:28;;;;;;;1.60;0.80;;;;;;;19.46;64.77;100710.91;5043570;28;20476;-73
2022/11/05 11:23:53;;;;;;;1.70;0.80;;;;;;;19.48;64.68;100713.41;5043861;28;20438;-73
2022/11/05 11:26:20;;;;;;;1.60;0.80;;;;;;;19.51;64.67;100707.75;5046160;28;20461;-73
2022/11/05 11:28:56;;;;;;;3.03;0.90;;;;;;;19.48;64.91;100719.13;5042591;28;20258;-73
2022/11/05 11:31:24;;;;;;;1.60;0.87;;;;;;;19.53;64.45;100710.25;5044316;28;20418;-73
2022/11/05 11:33:54;;;;;;;1.40;0.87;;;;;;;19.48;64.64;100702.78;5027505;28;20426;-73
2022/11/05 11:36:24;;;;;;;1.50;0.80;;;;;;;19.50;64.65;100700.38;5043860;28;21163;-73
2022/11/05 11:38:49;;;;;;;2.10;1.10;;;;;;;19.50;64.40;100706.09;5024712;28;20990;-72
2022/11/05 11:41:26;;;;;;;3.53;1.37;;;;;;;19.42;63.18;100715.72;5025865;28;20474;-71
2022/11/05 11:43:58;;;;;;;13.23;2.60;;;;;;;19.38;60.71;100709.13;5015870;28;20194;-71
2022/11/05 11:46:24;;;;;;;7.97;3.00;;;;;;;19.34;59.50;100719.66;5024660;28;20418;-75
2022/11/05 11:48:49;;;;;;;4.50;2.60;;;;;;;19.31;58.33;100725.31;5042902;28;20767;-72
2022/11/05 11:51:19;;;;;;;4.90;2.83;;;;;;;19.26;56.97;100719.91;5041753;28;20188;-71
2022/11/05 11:53:46;;;;;;;7.53;2.37;;;;;;;19.25;57.14;100721.06;5042013;28;20212;-72
2022/11/05 11:56:12;;;;;;;6.80;2.57;;;;;;;19.21;56.94;100729.56;5041463;28;20475;-72
2022/11/05 11:58:48;;;;;;;6.57;2.50;;;;;;;19.18;55.92;100724.59;5043154;28;20925;-72
2022/11/05 12:01:32;;;;;;;5.53;2.33;;;;;;;19.16;55.34;100729.84;5042418;28;20214;-72
2022/11/05 12:04:15;;;;;;;6.20;2.67;;;;;;;19.18;54.98;100727.47;5043148;28;20980;-72
2022/11/05 12:07:11;;;;;;;8.20;2.70;;;;;;;19.18;54.70;100727.47;5037757;28;20539;-73
2022/11/05 12:10:17;;;;;;;7.80;2.67;;;;;;;19.25;53.67;100721.91;5042400;28;20897;-73
2022/11/05 12:12:57;;;;;;;7.60;2.87;;;;;;;19.34;53.25;100724.56;4973236;28;20565;-74
2022/11/05 12:15:40;;;;;;;9.53;2.40;;;;;;;19.31;52.50;100726.13;5042223;28;20445;-73
2022/11/05 12:18:09;;;;;;;7.37;2.27;;;;;;;19.43;51.88;100728.88;5025795;28;20437;-73